ZGGGVMMC

Guest
Details From ZGGG - BAIYUN INTL
To VMMC - Macau Intl
Flight Number -
Tags generated
Created
Modified
Stats Distance 77 nm / 142 km
Max Altitude 9,500 ft / 2,896 m
Waypoints 3
Social Downloads 3
Likes 0
Share VATSIM

Download

Looking for another format? Having issues loading an existing format? Contact us
Advertisement - Login to hide

Notes

Basic altitude profile: - Ascent Rate: 2500ft/min - Ascent Speed: 250kts - Cruise Altitude: 35000ft - Cruise Speed: 420kts - Descent Rate: 1500ft/min - Descent Speed: 250kts Options: - Use NATs: yes - Use PACOTS: yes - Use low airways: yes - Use high airways: yes

Route

ZGGG SAREX VMMC

ID Type Via Altitude Latitude Longitude Leg Dist Tot Dist Heading (true) Name
O ZGGG APT - 0 ft / 0 m 23.39244˚ 113.29879˚ - 0 nm - BAIYUN INTL
SAREX FIX - 9,500 ft / 2,896 m 22.88167˚ 113.48333˚ 32 nm 32 nm 162° / 162° -
O VMMC APT - 0 ft / 0 m 22.14867˚ 113.59141˚ 44 nm 76 nm 172° / 172° Macau Intl

Altitude Profile

Advertisement - Login to hide

ZGGG

Details ICAO ZGGG (CAN)
Name BAIYUN INTL
Region China
Timezone Asia/Shanghai (UTC+8.0)
Stats Elevation 50 ft / 15 m (AMSL)
Location 23.392439° 113.298788°
Runways 2
Magnetic Variation 2.904° W

METAR

ZGGG 150630Z 34005MPS 9999 OVC023 16/12 Q1019 NOSIG

Decode

TAF

Not found

Departure Runways

ID Width Length Bearing (true) Bearing (mag) Surface Threshold Offset Overrun Length
02L 148 ft / 45 m 11,891 ft / 3,624 m 13.86° 16.76° Concrete 0 ft / 0 m 375 ft / 114 m
02R 197 ft / 60 m 12,554 ft / 3,827 m 13.90° 16.80° Concrete 0 ft / 0 m 380 ft / 116 m
20L 197 ft / 60 m 12,554 ft / 3,827 m 193.90° 196.80° Concrete 670 ft / 204 m 375 ft / 114 m
20R 148 ft / 45 m 11,891 ft / 3,624 m 193.86° 196.76° Concrete 0 ft / 0 m 385 ft / 117 m

VMMC

Details ICAO VMMC (MFM)
Name Macau Intl
Region Macau
Timezone Unknown (UTC+0.0)
Stats Elevation 20 ft / 6 m (AMSL)
Location 22.148675° 113.591412°
Runways 1
Magnetic Variation 2.744° W

METAR

VMMC 150630Z 02006KT 350V050 6000 FEW020 SCT035 20/16 Q1017 NOSIG

Decode

TAF

TAF VMMC 150500Z 1506/1612 36008KT 8000 FEW020 SCT035 TEMPO 1506/1510 4000 HZ BECMG 1518/1520 36018KT TEMPO 1603/1612 36022G32KT

Decode

Destination Runways

ID Width Length Bearing (true) Bearing (mag) Surface Threshold Offset Overrun Length
16 148 ft / 45 m 10,584 ft / 3,226 m 160.29° 163.03° Concrete 1,195 ft / 364 m 155 ft / 47 m
34 148 ft / 45 m 10,584 ft / 3,226 m 340.29° 343.03° Concrete 1,215 ft / 370 m 185 ft / 56 m

Approach Navaids

Runway Type Ident Frequency Range Bearing (true) Bearing (mag) Slope Elevation
16 Localiser MCS 111.70 MHz 18 nm / 33 km 214.85° 217.59° - 20 ft / 6 m (AMSL)
16 DME MCS 111.70 MHz 18 nm / 33 km - - - 286 ft / 87 m (AMSL)
34 Localiser MCN 109.70 MHz 18 nm / 33 km 341.45° 344.20° - 20 ft / 6 m (AMSL)
34 Glidescope MCN 109.70 MHz 10 nm / 19 km 340.29° 343.04° 3.00° 20 ft / 6 m (AMSL)
34 DME MCN 109.70 MHz 18 nm / 33 km - - - 13 ft / 4 m (AMSL)